Terminal Aerodrome Forecast
Issued by NWS Mt. Holly, NJ

Home | Current Version | Previous Version | Text Only | Print | Product List | Glossary On
Versions: 1 2 3 4 5 6 7 8 9 10 11 12 13 14 15 16 17 18 19 20 21 22 23 24
000
FTUS41 KPHI 271127
TAFPHL
TAF
KPHL 271127Z 2712/2818 02006KT P6SM SKC
     FM271600 07007KT P6SM FEW040
     FM272200 13004KT P6SM SCT250
     FM280200 VRB03KT P6SM SCT250=

USA.gov is the U.S. government's official web portal to all federal, state and local government web resources and services.